Anza Borrego Desert Research Center, California Weather observations

Data are for 10 minute period ending at time listed.
 Day   Time   Solar   Ave.   Ave.  Ave.  Vector  Max.   Baro.   Total    
  of    of     Rad.   Air    Rel.  Wind   Wind   Wind  Press.  Precip.   
Year   Day            Temp.  Hum.  Speed  Dir.   Gust                    
2014   (PST)  Kw/m2    F      %     mph   deg.    mph    mb.     in.     
-------------------------------------------------------------------------
 297   18:40   0.00   84.3    24    4.8   282     8.8   502.0    0.00 
 297   18:50   0.00   84.6    23    3.1   317     6.4   502.0    0.00 
 297   19:00   0.00   84.3    23    1.2   232     2.4   502.0    0.00 
 297   19:10   0.00   83.1    24    2.1   216     3.4   502.0    0.00 
 297   19:20   0.00   82.3    25    3.3   227     5.1   502.0    0.00 
 297   19:30   0.00   82.1    25    5.7   247     8.3   502.0    0.00 
 297   19:40   0.00   82.7    24    6.2   260     8.7   502.0    0.00 
 297   19:50   0.00   81.3    26    5.4   256     8.2   502.0    0.00 
 297   20:00   0.00   82.3    25    6.0   251     9.7   502.0    0.00 
 297   20:10   0.00   83.4    24    5.8   245     8.6   502.0    0.00 
 297   20:20   0.00   82.3    25    4.9   248     7.0   502.0    0.00 
 297   20:30   0.00   82.1    26    5.9   238     8.1   502.0    0.00 
 297   20:40   0.00   82.3    26    6.2   238     8.5   502.0    0.00 
 297   20:50   0.00   81.4    27    3.6   260     6.6   502.0    0.00 
 297   21:00   0.00   79.9    27    2.2   314     3.8   501.9    0.00 
 297   21:10   0.00   78.9    28    1.7   338     4.7   501.9    0.00 
 297   21:20   0.00   78.4    28    2.1   309     2.9   501.8    0.00 
 297   21:30   0.00   77.8    28    2.5   262     3.4   501.8    0.00 
 297   21:40   0.00   76.1    30    3.6   195     5.5   501.8    0.00 
 297   21:50   0.00   77.1    29    6.4   175     7.9   501.8    0.00 
 297   22:00   0.00   77.6    29    5.4   217     7.2   501.8    0.00 
 297   22:10   0.00   76.5    31    3.4   248     6.8   501.8    0.00 
 297   22:20   0.00   76.0    32    4.3   238     7.0   501.8    0.00 
 297   22:30   0.00   75.8    31    3.8   254     5.3   501.8    0.00 
 297   22:40   0.00   77.3    30    4.1   258     5.8   501.8    0.00 
 297   22:50   0.00   76.6    30    4.0   249     6.6   501.8    0.00 
 297   23:00   0.00   75.5    32    3.5   220     5.0   501.8    0.00 
 297   23:10   0.00   75.4    32    2.4   254     5.1   501.8    0.00 
 297   23:20   0.00   74.1    32    4.1   299     5.0   501.8    0.00 
 297   23:30   0.00   74.3    32    2.8   315     5.1   501.8    0.00 
 297   23:40   0.00   74.0    32    1.2   312     3.6   501.8    0.00 
 297   23:50   0.00   74.0    32    4.9   349     6.0   501.8    0.00 
 298    0:00   0.00   73.7    32    3.3   305     6.0   501.8    0.00 
 298    0:10   0.00   72.6    33    3.8   242     5.5   501.8    0.00 
 298    0:20   0.00   72.1    34    3.8   238     7.8   501.8    0.00 
 298    0:30   0.00   72.9    33    5.4   226     7.4   501.8    0.00 
 298    0:40   0.00   73.4    32    5.4   210     7.5   501.8    0.00 
 298    0:50   0.00   72.9    33    7.0   217     8.8   501.8    0.00 
 298    1:00   0.00   73.1    33    7.7   233    10.0   501.8    0.00 
 298    1:10   0.00   75.3    31    7.0   233     9.2   501.8    0.00 
 298    1:20   0.00   75.4    31    6.3   226     8.5   501.8    0.00 
 298    1:30   0.00   73.5    33    5.0   217     7.5   501.8    0.00 
 298    1:40   0.00   75.1    31    3.6   190     6.3   501.8    0.00 
 298    1:50   0.00   74.1    32    3.1   207     5.6   501.8    0.00 
 298    2:00   0.00   72.4    34    1.4   287     4.3   501.8    0.00 
 298    2:10   0.00   72.3    34    1.5   305     3.1   501.8    0.00 
 298    2:20   0.00   70.7    35    1.9   354     2.9   501.8    0.00 
 298    2:30   0.00   71.3    35    2.0   227     3.5   501.8    0.00 
 298    2:40   0.00   72.6    33    3.0   203     4.7   501.8    0.00 
 298    2:50   0.00   70.6    36    5.2   213     6.5   501.8    0.00 
 298    3:00   0.00   70.5    36    4.1   244     6.3   501.8    0.00 
 298    3:10   0.00   69.9    38    5.0   255     8.2   501.8    0.00 
 298    3:20   0.00   71.2    36    5.3   258     7.5   501.8    0.00 
 298    3:30   0.00   71.8    36    4.6   229     8.3   501.8    0.00 
 298    3:40   0.00   72.2    36    5.4   260    10.2   501.8    0.00 
 298    3:50   0.00   74.8    34    6.6   242     9.7   501.8    0.00 
 298    4:00   0.00   74.9    34    5.5   250     8.2   501.8    0.00 
 298    4:10   0.00   74.4    35    5.6   250     8.0   501.8    0.00 
 298    4:20   0.00   72.9    37    6.6   232     7.8   501.8    0.00 
 298    4:30   0.00   72.4    38    7.2   241     8.8   501.8    0.00 
 298    4:40   0.00   72.4    38    9.0   244    13.2   501.8    0.00 
 298    4:50   0.00   73.6    37   11.4   256    13.3   501.8    0.00 
 298    5:00   0.00   74.9    36   10.4   247    13.7   501.8    0.00 
 298    5:10   0.00   80.2    34   13.1   269    24.0   501.8    0.00 
 298    5:20   0.00   85.0    30    8.1   276    19.4   501.8    0.00 
 298    5:30   0.00   80.9    30    4.2   114     8.1   501.8    0.00 
 298    5:40   0.00   77.5    33    7.3    67    11.0   501.8    0.00 
 298    5:50   0.00   76.5    34    3.7    94     8.0   501.8    0.00 
 298    6:00   0.00   76.2    34    3.5    63     6.9   501.8    0.00 
 298    6:10   0.00   76.4    33    2.6    90     6.1   501.8    0.00 
 298    6:20   0.01   75.4    34    3.2   306     6.3   501.8    0.00 
 298    6:30   0.02   75.0    34    5.2   231     8.4   501.8    0.00 
 298    6:40   0.03   75.1    34    4.3   199     6.6   501.8    0.00 
 298    6:50   0.06   77.2    33    5.8   149     8.7   501.8    0.00 
 298    7:00   0.05   78.4    31    4.5   156     8.6   501.8    0.00 
 298    7:10   0.11   78.4    32    3.9   166    10.2   501.8    0.00 
 298    7:20   0.15   80.5    30    2.4   134     9.2   501.8    0.00 
 298    7:30   0.13   80.4    30    3.5   171     8.7   501.8    0.00 
 298    7:40   0.25   81.7    29    1.9   244     3.7   501.8    0.00 
 298    7:50   0.22   83.5    28    2.5   198     4.0   501.9    0.00 
 298    8:00   0.28   83.2    28    3.6   184     5.2   502.0    0.00 
 298    8:10   0.33   84.5    27    3.9   193     6.4   502.0    0.00 
 298    8:20   0.43   86.3    26    4.4   195     8.3   502.0    0.00 
 298    8:30   0.42   86.4    26    3.9   196     6.1   502.0    0.00 
 298    8:40   0.51   86.8    26    5.7   168    10.0   502.0    0.00 
 298    8:50   0.46   86.2    26    4.9   189     8.1   502.0    0.00 
 298    9:00   0.37   86.5    26    3.6   202     5.9   502.0    0.00 
 298    9:10   0.57   87.3    26    1.9   249     4.3   502.1    0.00 
 298    9:20   0.55   89.2    24    2.2   174     5.9   502.1    0.00 
 298    9:30   0.58   89.6    24    2.6   197     5.6   502.1    0.00 
 298    9:40   0.59   90.0    24    1.8   144     4.4   502.1    0.00 
 298    9:50   0.60   90.6    24    2.3   196     5.2   502.1    0.00 
 298   10:00   0.62   91.1    23    2.4   137     4.8   502.1    0.00 
 298   10:10   0.64   91.4    23    3.3   173     5.8   502.3    0.00 
 298   10:20   0.65   90.7    24    5.0    98     7.2   502.3    0.00 
 298   10:30   0.67   91.3    24    3.4    61     7.3   502.3    0.00 
 298   10:40   0.69   91.0    24    4.2    82     7.8   502.3    0.00 
 298   10:50   0.67   91.5    23    3.1   115     6.1   502.3    0.00 
 298   11:00   0.71   91.7    23    4.5    94     6.9   502.3    0.00 
 298   11:10   0.69   91.8    23    3.4    62     7.8   502.3    0.00 
 298   11:20   0.59   91.9    23    5.7   115    10.1   502.3    0.00 
 298   11:30   0.76   91.7    23    5.2   106     9.8   502.3    0.00 
 298   11:40   0.59   92.5    23    3.6   196     8.9   502.3    0.00 
 298   11:50   0.39   91.9    23    2.6   206     7.5   502.3    0.00 
 298   12:00   0.69   92.6    23    3.8   170     8.7   502.3    0.00 
 298   12:10   0.70   93.0    22    7.1   130    12.4   502.3    0.00 
 298   12:20   0.75   93.6    22    4.2   151     7.8   502.3    0.00 
 298   12:30   0.46   93.1    22    8.9   134    17.1   826.8    0.00 
 298   12:40   0.66   92.7    23    3.4   129     8.5   979.2    0.00 
 298   12:50   0.64   94.1    22    3.4   122     8.8   979.6    0.00 
 298   13:00   0.67   93.8    22    3.6   116    10.0   981.7    0.00 
 298   13:10   0.63   94.1    21    5.7   194    12.0   982.0    0.00 
 298   13:20   0.60   94.0    21    5.4   210    11.1   981.8    0.00 
 298   13:30   0.59   94.6    21    5.3   132    10.4   981.7    0.00 
 298   13:40   0.56   94.6    21    6.4   182    12.3   981.7    0.00 
 298   13:50   0.53   94.2    21   11.2   256    19.1   981.7    0.00 
 298   14:00   0.52   93.6    21   10.3   269    17.2   981.6    0.00 
 298   14:10   0.50   94.1    20    9.8   255    19.0   981.3    0.00 
 298   14:20   0.47   93.4    21   10.9   238    18.0   981.2    0.00 
 298   14:30   0.44   93.4    21   13.1   238    18.8   980.2    0.00 
 298   14:40   0.41   93.2    21   10.2   258    15.2   973.1    0.00 
 298   14:50   0.38   93.2    21    9.9   260    16.1   515.1    0.00 
 298   15:00   0.35   92.7    22   11.7   259    17.3   502.3    0.00 
 298   15:10   0.32   92.7    22   10.0   249    17.5   502.3    0.00 
 298   15:20   0.29   93.3    22    6.1   266    14.5   502.3    0.00 
 298   15:30   0.25   92.9    22    7.6   273    11.6   502.3    0.00 
 298   15:40   0.22   92.2    23    9.6   271    13.2   502.3    0.00 
 298   15:50   0.19   92.1    23    7.0   274    11.4   502.3    0.00 
 298   16:00   0.16   91.8    23    4.7   302     9.5   502.3    0.00 
 298   16:10   0.13   91.7    23    5.2   276     9.9   502.2    0.00 
 298   16:20   0.05   90.4    24    3.0   306     5.6   502.1    0.00 
 298   16:30   0.01   88.6    25    3.0   315     6.9   502.1    0.00 
 298   16:40   0.01   87.5    26    6.8   325    11.4   502.1    0.00 
 298   16:50   0.01   87.1    26    6.1   306    12.1   502.1    0.00 
 298   17:00   0.00   86.8    26    7.7   303    13.4   502.0    0.00 
 298   17:10   0.00   86.6    27    6.3   320    15.5   502.0    0.00 
 298   17:20   0.00   86.2    27    8.6   310    15.0   502.0    0.00 
 298   17:30   0.00   85.8    27    9.1   325    18.0   502.0    0.00 
 298   17:40   0.00   85.5    28    7.3   323    13.3   502.0    0.00 
 298   17:50   0.00   85.1    28    7.1   312    11.5   502.0    0.00 
 298   18:00   0.00   84.6    28    8.8   312    15.1   502.0    0.00 
 298   18:10   0.00   84.3    28    8.1   312    13.1   502.0    0.00 
 298   18:20   0.00   84.1    28    8.1   306    13.2   502.0    0.00 
 298   18:30   0.00   83.9    28    6.6   318    10.8   502.0    0.00 

Return to Anza Borrego Desert Research Center graphs page.


Western Regional Climate Center,wrcc@dri.edu